Aérodrome :







RETROUVEZ-NOUS SUR...

 
LOGIN :

S'inscrire | Disclaimer

   EN    FR    IT 

 









Légende :    VFR   VFR Marginal   IFR   IFR Intensif   IFR Très Intensif
Visi : 
Plafond : 
>= 8 km
>= 3000ft
5 à 8 km
1000 à 3000 ft
1500m à 5 km
500 à 1000 ft
800 à 1500m
200 à 500 ft
< 800m
< 200 ft
Symboles :   Orages  Brouillard  Fortes neiges  Fortes précipitations  Vent > 20 kt






- Altitude de l'aérodrome : 16 ft
- Code IATA : FDF


TFFF - Aime Cesaire

DERNIER METAR :
  • 281700Z AUTO 14005KT 120V180 9999 BKN036/// OVC045/// ///CB 30/23 Q1012

METARs EXPIRÉS :
  • 281630Z AUTO 12011KT 9999 SCT033/// SCT039/// BKN056/// ///CB 31/23 Q1012
  • 281600Z AUTO 12011KT 080V160 9999 FEW034/// ///TCU 32/24 Q1012
  • 281530Z AUTO 13011KT 090V160 9999 FEW031/// SCT060/// BKN076/// ///CB 32/24 Q1013
  • 281500Z AUTO 11013KT 080V150 9999 FEW027/// ///TCU 31/24 Q1013
  • 281430Z AUTO 10011KT 9999 FEW041 31/25 Q1014

Prévision TAF périmée.
FIR TTZP / Amérique du Nord



MET'MAP, la Météo Aéronautique d'un coup d'oeil ! - Copyright ORBIFLY Décembre 2007 - Disclaimer

ORBIFLY MET'MAP TEAM :

Programmation & Développement : Alexandra Zaïnal
Sur une idée originale de : Baudouin d'Aumeries
Assistance à la programmation : Marc-Olivier Méhu
Soutien technique & logistique : Manuel Goepfert

Contact : metmap@orbifly.com




SOURCES & CREDITS :

   NOAA